Littleton, CO (80121)

8:24 PM MDT on April 27, 2015 (GMT -0600)
Taz RV - South Humboldt Place | | Change Station
CLOSE
Current Station
Personal Weather Station
Location: Centennial, CO
Elevation: 5538 ft
Nearby Weather Stations

Elev 5538 ft 39.60 °N, 104.97 °W | Updated 8 minutes ago

Overcast
Overcast
44.2 °F
Feels Like 44 °F
N
0.0
Wind Variable Wind from ESE

Today
High -- | Low -- °F
--% Chance of Precip.
Yesterday
High -- | Low -- °F
Precip. -- in
6:05 AM 7:49 PM
Waxing Gibbous, 69% visible
Pressure 30.32 in
Visibility 10.0 miles
Clouds Few 1800 ft
Scattered Clouds 2800 ft
Overcast 4500 ft
Windchill 44 °F
Dew Point 42 °F
Humidity 90%
Rainfall 0.11 in
Snow Depth Not available.
UV 0 out of 12
Pollen 3.20 out of 12
Air Quality Not available.
Flu Activity Sporadic
METAR KAPA 280153Z 06004KT 10SM FEW018 SCT028 OVC045 06/03 A3030 RMK AO2 SLP267 T00610033

More Conditions Fewer Conditions

Pressure 30.32 in
Visibility 10.0 miles
Clouds Few 1800 ft
Scattered Clouds 2800 ft
Overcast 4500 ft
Windchill 44 °F
Dew Point 42 °F
Humidity 90%
Rainfall 0.11 in
Snow Depth Not available.
UV 0 out of 12
Pollen 3.20 out of 12
Air Quality Not available.
Flu Activity Sporadic
METAR KAPA 280153Z 06004KT 10SM FEW018 SCT028 OVC045 06/03 A3030 RMK AO2 SLP267 T00610033

More Conditions Fewer Conditions

10-Day Weather Forecast

Almanac

Astronomy

Apr. 27, 2015 Rise Set
Actual Time
Civil Twilight
Nautical Twilight
Astronomical Twilight
Moon
Length of Visible Light
Length of Day
Tomorrow will be .
, % of the Moon is Illuminated

Today's Extremes

State Highs State Lows

Community

WunderPhotos

Upload Photos

1,817,509 photos uploaded!

WunderBlogs® & News

Nearby

Air Quality

  Air Quality AQ Index Pollutant
Not available.

Snow Depth

Station Depth Elevation

Earthquake Activity

City Distance Mag. Time & Date
Minimum magnitude displayed is 2.5.

Coastal Water Temperatures

Place Temperature

Stations

Nearby Weather Stations

Station Location Temp. Windchill Dew Point Humidity Wind Precip. Elev Updated Type